createdAt,value
2019-03-08T00:01:12.796Z,99914.72
2019-03-08T00:03:42.345Z,99918.74
2019-03-08T00:06:12.149Z,99929.97
2019-03-08T00:08:41.723Z,99929.97
2019-03-08T00:11:11.269Z,99943.88
2019-03-08T00:13:40.865Z,99942.17
2019-03-08T00:16:10.408Z,99959.12
2019-03-08T00:18:39.954Z,99950.80
2019-03-08T00:21:09.496Z,99961.89
2019-03-08T00:23:39.465Z,99963.23
2019-03-08T00:26:09.078Z,99968.60
2019-03-08T00:28:38.617Z,99980.80
2019-03-08T00:31:08.196Z,99996.02
2019-03-08T00:33:37.743Z,100008.09
2019-03-08T00:36:07.311Z,100006.87
2019-03-08T00:38:36.853Z,100022.08
2019-03-08T00:41:06.385Z,100014.03
2019-03-08T00:43:35.937Z,100035.50
2019-03-08T00:46:05.469Z,100042.33
2019-03-08T00:48:35.025Z,100053.06
2019-03-08T00:51:04.754Z,100067.42
2019-03-08T00:53:34.292Z,100047.30
2019-03-08T00:56:04.457Z,100059.86
2019-03-08T00:58:34.043Z,100073.67
2019-03-08T01:01:03.609Z,100080.83
2019-03-08T01:03:33.197Z,100078.77
2019-03-08T01:06:02.720Z,100086.81
2019-03-08T01:08:32.267Z,100100.22
2019-03-08T01:11:02.219Z,100106.45
2019-03-08T01:13:31.755Z,100099.73
2019-03-08T01:16:01.645Z,100112.75
2019-03-08T01:18:31.801Z,100123.97
2019-03-08T01:21:01.346Z,100115.55
2019-03-08T01:23:30.920Z,100143.23
2019-03-08T01:26:00.449Z,100141.53
2019-03-08T01:28:30.729Z,100138.45
2019-03-08T01:31:00.616Z,100148.69
2019-03-08T01:33:30.519Z,100166.62
2019-03-08T01:36:00.055Z,100179.66
2019-03-08T01:38:29.609Z,100179.66
2019-03-08T01:40:59.179Z,100172.10
2019-03-08T01:43:28.749Z,100184.17
2019-03-08T01:45:58.287Z,100191.33
2019-03-08T01:48:27.845Z,100189.99
2019-03-08T01:50:57.394Z,100192.67
2019-03-08T01:53:27.743Z,100186.94
2019-03-08T01:55:57.288Z,100203.41
2019-03-08T01:58:27.008Z,100207.91
2019-03-08T02:00:56.892Z,100219.98
2019-03-08T02:03:27.045Z,100223.64
2019-03-08T02:05:56.605Z,100225.47
2019-03-08T02:08:26.157Z,100247.39
2019-03-08T02:10:56.030Z,100235.80
2019-03-08T02:13:25.597Z,100247.50
2019-03-08T02:15:55.163Z,100250.19
2019-03-08T02:18:24.720Z,100252.38
2019-03-08T02:20:54.286Z,100261.41
2019-03-08T02:23:23.840Z,100272.59
2019-03-08T02:25:53.933Z,100282.86
2019-03-08T02:28:23.510Z,100281.98
2019-03-08T02:30:53.063Z,100286.00
2019-03-08T02:33:22.621Z,100276.23
2019-03-08T02:35:52.175Z,100283.44
2019-03-08T02:38:21.803Z,100293.19
2019-03-08T02:40:51.395Z,100301.73
2019-03-08T02:43:20.939Z,100311.60
2019-03-08T02:45:50.511Z,100310.75
2019-03-08T02:48:20.048Z,100321.47
2019-03-08T02:50:49.621Z,100319.24
2019-03-08T02:53:19.330Z,100325.09
2019-03-08T02:55:48.937Z,100323.75
2019-03-08T02:58:18.653Z,100322.46
2019-03-08T03:00:48.199Z,100329.17
2019-03-08T03:03:17.873Z,100330.09
2019-03-08T03:05:50.037Z,100334.53
2019-03-08T03:08:19.565Z,100353.31
2019-03-08T03:10:49.421Z,100338.55
2019-03-08T03:13:18.939Z,100347.09
2019-03-08T03:15:48.468Z,100356.96
2019-03-08T03:18:18.005Z,100357.94
2019-03-08T03:20:48.155Z,100363.19
2019-03-08T03:23:17.995Z,100358.67
2019-03-08T03:25:47.601Z,100374.03
2019-03-08T03:28:17.141Z,100371.34
2019-03-08T03:30:46.716Z,100382.52
2019-03-08T03:33:16.517Z,100373.63
2019-03-08T03:35:46.140Z,100383.01
2019-03-08T03:38:15.675Z,100380.81
2019-03-08T03:40:45.226Z,100384.47
2019-03-08T03:43:14.780Z,100394.30
2019-03-08T03:45:44.672Z,100403.70
2019-03-08T03:48:14.229Z,100404.18
2019-03-08T03:50:43.798Z,100417.59
2019-03-08T03:53:13.328Z,100428.72
2019-03-08T03:55:42.868Z,100437.22
2019-03-08T03:58:12.410Z,100433.80
2019-03-08T04:00:41.981Z,100438.67
2019-03-08T04:03:11.899Z,100430.63
2019-03-08T04:05:41.468Z,100429.77
2019-03-08T04:08:11.325Z,100443.19
2019-03-08T04:10:41.218Z,100447.20
2019-03-08T04:13:10.876Z,100446.31
2019-03-08T04:15:40.412Z,100458.87
2019-03-08T04:18:09.976Z,100474.96
2019-03-08T04:20:39.874Z,100472.39
2019-03-08T04:23:09.798Z,100480.33
2019-03-08T04:25:39.379Z,100492.40
2019-03-08T04:28:08.912Z,100496.91
2019-03-08T04:30:38.458Z,100511.66
2019-03-08T04:33:08.031Z,100513.96
2019-03-08T04:35:37.564Z,100519.78
2019-03-08T04:38:07.121Z,100518.84
2019-03-08T04:40:36.670Z,100529.16
2019-03-08T04:43:06.228Z,100535.02
2019-03-08T04:45:36.032Z,100548.42
2019-03-08T04:48:05.863Z,100552.93
2019-03-08T04:50:35.690Z,100557.81
2019-03-08T04:53:05.245Z,100550.73
2019-03-08T04:55:34.979Z,100562.39
2019-03-08T04:58:04.858Z,100573.53
2019-03-08T05:00:34.722Z,100582.44
2019-03-08T05:03:04.540Z,100587.88
2019-03-08T05:05:34.446Z,100573.13
2019-03-08T05:08:04.213Z,100588.36
2019-03-08T05:10:33.747Z,100592.79
2019-03-08T05:13:03.326Z,100603.03
2019-03-08T05:15:32.870Z,100606.57
2019-03-08T05:18:02.415Z,100616.82
2019-03-08T05:20:32.023Z,100621.70
2019-03-08T05:23:01.906Z,100643.16
2019-03-08T05:25:32.032Z,100644.05
2019-03-08T05:28:01.879Z,100657.05
2019-03-08T05:30:31.408Z,100657.46
2019-03-08T05:33:00.995Z,100659.18
2019-03-08T05:35:30.907Z,100676.99
2019-03-08T05:38:00.467Z,100677.58
2019-03-08T05:40:30.319Z,100689.06
2019-03-08T05:43:00.237Z,100706.50
2019-03-08T05:45:29.791Z,100700.27
2019-03-08T05:47:59.331Z,100705.75
2019-03-08T05:50:29.092Z,100719.05
2019-03-08T05:52:58.666Z,100733.25
2019-03-08T05:55:28.204Z,100739.09
2019-03-08T05:57:58.078Z,100756.05
2019-03-08T06:00:32.205Z,100765.44
2019-03-08T06:03:00.917Z,100764.58
2019-03-08T06:05:30.491Z,100766.78
2019-03-08T06:08:00.142Z,100776.17
2019-03-08T06:10:31.074Z,100786.04
2019-03-08T06:13:00.663Z,100802.52
2019-03-08T06:15:30.535Z,100809.22
2019-03-08T06:18:00.963Z,100819.47
2019-03-08T06:20:30.512Z,100826.59
2019-03-08T06:23:00.405Z,100830.13
2019-03-08T06:25:30.049Z,100832.81
2019-03-08T06:27:59.571Z,100829.58
2019-03-08T06:30:29.022Z,100838.48
2019-03-08T06:32:58.913Z,100847.02
2019-03-08T06:35:28.457Z,100845.27
2019-03-08T06:37:57.988Z,100848.84
2019-03-08T06:40:27.544Z,100855.45
2019-03-08T06:42:57.084Z,100853.63
2019-03-08T06:45:26.660Z,100857.23
2019-03-08T06:47:56.184Z,100863.50
2019-03-08T06:50:26.111Z,100872.84
2019-03-08T06:52:55.670Z,100875.91
2019-03-08T06:55:25.224Z,100882.17
2019-03-08T06:58:02.398Z,100890.12
2019-03-08T07:00:41.182Z,100900.37
2019-03-08T07:03:10.730Z,100907.97
2019-03-08T07:05:40.282Z,100915.53
2019-03-08T07:08:09.862Z,100906.53
2019-03-08T07:10:39.407Z,100915.75
2019-03-08T07:13:08.983Z,100920.19
2019-03-08T07:15:38.529Z,100934.39
2019-03-08T07:18:12.656Z,100933.91
2019-03-08T07:20:53.788Z,100941.48
2019-03-08T07:23:41.116Z,100945.89
2019-03-08T07:26:29.601Z,100961.92
2019-03-08T07:29:08.003Z,100961.86
2019-03-08T07:31:50.089Z,100977.06
2019-03-08T07:34:24.634Z,100976.03
2019-03-08T07:37:13.186Z,100979.61
2019-03-08T07:39:51.321Z,100984.81
2019-03-08T07:42:37.277Z,100998.06
2019-03-08T07:45:25.348Z,101008.63
2019-03-08T07:48:07.833Z,101002.34
2019-03-08T07:50:56.789Z,101001.06
2019-03-08T07:53:41.763Z,101014.00
2019-03-08T07:56:18.189Z,101024.30
2019-03-08T07:59:03.210Z,101033.59
2019-03-08T08:01:51.091Z,101042.92
2019-03-08T08:04:40.205Z,101039.27
2019-03-08T08:07:29.043Z,101042.37
2019-03-08T08:10:20.900Z,101048.98
2019-03-08T08:13:01.148Z,101055.20
2019-03-08T08:15:52.560Z,101059.10
2019-03-08T08:18:29.561Z,101066.74
2019-03-08T08:21:27.355Z,101069.84
2019-03-08T08:24:18.484Z,101076.55
2019-03-08T08:27:18.719Z,101075.84
2019-03-08T08:30:05.617Z,101078.73
2019-03-08T08:33:02.572Z,101082.53
2019-03-08T08:35:49.927Z,101093.59
2019-03-08T08:38:28.956Z,101094.31
2019-03-08T08:41:06.610Z,101101.80
2019-03-08T08:44:00.845Z,101106.17
2019-03-08T08:47:07.769Z,101107.41
2019-03-08T08:49:55.662Z,101114.61
2019-03-08T08:52:36.438Z,101121.01
2019-03-08T08:55:18.693Z,101132.23
2019-03-08T08:58:06.171Z,101131.44
2019-03-08T09:00:44.925Z,101138.31
2019-03-08T09:03:36.983Z,101134.42
2019-03-08T09:06:28.848Z,101147.94
2019-03-08T09:09:16.339Z,101149.35
2019-03-08T09:11:53.066Z,101153.00
2019-03-08T09:14:41.709Z,101163.73
2019-03-08T09:17:41.044Z,101169.91
2019-03-08T09:20:41.780Z,101174.80
2019-03-08T09:23:19.771Z,101189.95
2019-03-08T09:26:02.882Z,101186.78
2019-03-08T09:28:39.377Z,101198.42
2019-03-08T09:31:25.049Z,101200.38
2019-03-08T09:34:02.401Z,101203.47
2019-03-08T09:36:50.933Z,101211.05
2019-03-08T09:39:45.451Z,101210.09
2019-03-08T09:42:32.718Z,101215.94
2019-03-08T09:45:30.219Z,101219.97
2019-03-08T09:48:19.327Z,101223.13
2019-03-08T09:51:08.073Z,101228.09
2019-03-08T09:54:02.421Z,101233.40
2019-03-08T09:56:51.325Z,101238.45
2019-03-08T09:59:36.396Z,101229.91
2019-03-08T10:02:27.808Z,101235.70
2019-03-08T10:05:21.947Z,101233.94
2019-03-08T10:08:28.352Z,101230.33
2019-03-08T10:11:03.384Z,101244.20
2019-03-08T10:13:39.363Z,101243.75
2019-03-08T10:16:15.597Z,101251.39
2019-03-08T10:19:15.315Z,101255.84
2019-03-08T10:21:54.382Z,101259.87
2019-03-08T10:24:41.469Z,101268.38
2019-03-08T10:27:38.044Z,101270.61
2019-03-08T10:30:34.645Z,101267.13
2019-03-08T10:33:19.178Z,101278.25
2019-03-08T10:36:08.444Z,101282.27
2019-03-08T10:38:55.759Z,101283.23
2019-03-08T10:41:39.413Z,101285.50
2019-03-08T10:44:26.389Z,101279.69
2019-03-08T10:47:08.367Z,101286.84
2019-03-08T10:49:55.538Z,101292.70
2019-03-08T10:52:46.771Z,101293.17
2019-03-08T10:55:35.482Z,101291.45
2019-03-08T10:58:24.191Z,101296.81
2019-03-08T11:01:05.723Z,101296.40
2019-03-08T11:03:52.872Z,101298.16
2019-03-08T11:06:34.003Z,101294.58
2019-03-08T11:09:41.049Z,101301.29
2019-03-08T11:12:32.931Z,101295.47
2019-03-08T11:15:30.586Z,101297.74
2019-03-08T11:18:34.291Z,101296.81
2019-03-08T11:21:18.794Z,101284.73
2019-03-08T11:24:05.845Z,101286.08
2019-03-08T11:26:52.929Z,101294.13
2019-03-08T11:29:43.958Z,101298.55
2019-03-08T11:32:35.409Z,101301.71
2019-03-08T11:35:26.960Z,101305.26
2019-03-08T11:38:13.717Z,101303.86
2019-03-08T11:41:08.426Z,101303.76
2019-03-08T11:43:49.908Z,101307.25
2019-03-08T11:46:28.234Z,101309.87
2019-03-08T11:49:16.759Z,101312.55
2019-03-08T11:52:17.435Z,101319.17
2019-03-08T11:55:07.407Z,101322.28
2019-03-08T11:57:52.071Z,101324.01
2019-03-08T12:00:34.791Z,101331.58
2019-03-08T12:03:18.231Z,101319.02
2019-03-08T12:06:07.051Z,101317.67
2019-03-08T12:08:55.602Z,101316.27
2019-03-08T12:11:47.209Z,101328.36
2019-03-08T12:14:41.851Z,101314.87
2019-03-08T12:17:45.576Z,101321.10
2019-03-08T12:20:36.651Z,101315.73
2019-03-08T12:23:23.887Z,101315.73
2019-03-08T12:26:06.678Z,101317.45
2019-03-08T12:29:07.400Z,101311.16
2019-03-08T12:32:05.042Z,101308.86
2019-03-08T12:35:08.491Z,101307.13
2019-03-08T12:37:48.167Z,101305.69
2019-03-08T12:40:36.689Z,101309.72
2019-03-08T12:43:21.735Z,101301.28
2019-03-08T12:46:00.292Z,101300.32
2019-03-08T12:49:03.647Z,101294.50
2019-03-08T12:51:43.167Z,101297.19
2019-03-08T12:54:31.727Z,101294.50
2019-03-08T12:57:29.469Z,101300.32
2019-03-08T13:00:06.385Z,101294.09
2019-03-08T13:03:13.170Z,101292.27
2019-03-08T13:05:52.705Z,101288.23
2019-03-08T13:08:34.456Z,101289.45
2019-03-08T13:11:04.283Z,101287.69
2019-03-08T13:13:33.826Z,101283.66
2019-03-08T13:16:03.370Z,101286.77
2019-03-08T13:18:32.910Z,101277.75
2019-03-08T13:21:02.516Z,101284.52
2019-03-08T13:23:32.363Z,101279.63
2019-03-08T13:26:01.898Z,101282.31
2019-03-08T13:28:31.462Z,101285.80
2019-03-08T13:31:01.179Z,101287.15
2019-03-08T13:33:31.061Z,101284.08
2019-03-08T13:36:00.622Z,101293.86
2019-03-08T13:38:30.073Z,101285.80
2019-03-08T13:40:59.616Z,101282.31
2019-03-08T13:43:29.149Z,101273.33
2019-03-08T13:45:58.861Z,101281.45
2019-03-08T13:48:28.385Z,101280.05
2019-03-08T13:50:57.919Z,101286.77
2019-03-08T13:53:27.456Z,101274.20
2019-03-08T13:55:56.984Z,101276.88
2019-03-08T13:58:26.684Z,101276.41
2019-03-08T14:00:56.255Z,101274.26
2019-03-08T14:03:26.035Z,101285.00
2019-03-08T14:05:55.580Z,101280.11
2019-03-08T14:08:25.137Z,101293.06
2019-03-08T14:10:54.957Z,101277.42
2019-03-08T14:13:24.478Z,101272.05
2019-03-08T14:15:54.305Z,101271.19
2019-03-08T14:18:23.844Z,101277.05
2019-03-08T14:20:53.378Z,101283.76
2019-03-08T14:23:22.906Z,101281.94
2019-03-08T14:25:52.970Z,101281.08
2019-03-08T14:28:22.502Z,101288.66
2019-03-08T14:30:58.317Z,101284.52
2019-03-08T14:33:27.841Z,101283.18
2019-03-08T14:35:57.362Z,101277.75
2019-03-08T14:38:31.457Z,101291.66
2019-03-08T14:41:06.336Z,101285.10
2019-03-08T14:44:06.985Z,101282.48
2019-03-08T14:46:46.525Z,101281.67
2019-03-08T14:49:19.258Z,101270.13
2019-03-08T14:51:48.291Z,101277.81
2019-03-08T14:54:18.532Z,101276.47
2019-03-08T14:56:48.068Z,101276.47
2019-03-08T14:59:17.858Z,101265.30
2019-03-08T15:01:47.406Z,101267.55
2019-03-08T15:04:16.959Z,101272.91
2019-03-08T15:06:46.620Z,101272.98
2019-03-08T15:09:16.169Z,101267.61
2019-03-08T15:11:46.029Z,101274.32
2019-03-08T15:14:15.897Z,101270.83
2019-03-08T15:16:45.427Z,101260.19
2019-03-08T15:19:14.956Z,101268.25
2019-03-08T15:21:48.454Z,101269.11
2019-03-08T15:24:16.086Z,101273.61
2019-03-08T15:26:45.615Z,101272.11
2019-03-08T15:29:15.531Z,101266.33
2019-03-08T15:31:45.420Z,101265.40
2019-03-08T15:34:21.283Z,101264.53
2019-03-08T15:36:46.278Z,101249.77
2019-03-08T15:39:15.833Z,101264.53
2019-03-08T15:41:45.470Z,101263.64
2019-03-08T15:44:15.381Z,101272.59
2019-03-08T15:46:44.967Z,101263.19
2019-03-08T15:49:14.510Z,101264.05
2019-03-08T15:51:44.061Z,101263.19
2019-03-08T15:54:13.656Z,101262.39
2019-03-08T15:56:43.255Z,101263.31
2019-03-08T15:59:12.774Z,101259.77
2019-03-08T16:01:42.637Z,101254.41
2019-03-08T16:04:13.011Z,101247.30
2019-03-08T16:06:43.987Z,101267.44
2019-03-08T16:09:13.893Z,101259.12
2019-03-08T16:11:43.443Z,101262.84
2019-03-08T16:14:13.036Z,101261.91
2019-03-08T16:16:42.598Z,101261.49
2019-03-08T16:19:12.485Z,101258.81
2019-03-08T16:21:42.422Z,101260.15
2019-03-08T16:24:11.982Z,101250.37
2019-03-08T16:26:41.580Z,101259.77
2019-03-08T16:29:11.449Z,101254.45
2019-03-08T16:31:55.740Z,101253.98
2019-03-08T16:34:25.327Z,101255.16
2019-03-08T16:37:19.823Z,101248.92
2019-03-08T16:40:07.930Z,101249.78
2019-03-08T16:42:51.304Z,101247.58
2019-03-08T16:45:33.361Z,101240.71
2019-03-08T16:48:13.413Z,101234.80
2019-03-08T16:50:56.054Z,101231.16
2019-03-08T16:53:33.397Z,101231.95
2019-03-08T16:56:19.462Z,101229.69
2019-03-08T16:58:53.749Z,101222.08
2019-03-08T17:01:41.210Z,101226.11
2019-03-08T17:04:28.505Z,101220.35
2019-03-08T17:07:16.464Z,101221.31
2019-03-08T17:10:08.154Z,101228.89
2019-03-08T17:12:55.465Z,101227.45
2019-03-08T17:15:52.901Z,101226.05
2019-03-08T17:18:39.392Z,101218.53
2019-03-08T17:21:26.287Z,101222.23
2019-03-08T17:24:20.770Z,101216.97
2019-03-08T17:27:05.985Z,101215.20
2019-03-08T17:29:54.805Z,101206.28
2019-03-08T17:32:58.484Z,101201.78
2019-03-08T17:35:46.028Z,101199.09
2019-03-08T17:38:28.171Z,101193.34
2019-03-08T17:41:07.107Z,101195.01
2019-03-08T17:43:54.407Z,101186.86
2019-03-08T17:46:44.789Z,101187.27
2019-03-08T17:49:32.661Z,101191.68
2019-03-08T17:52:27.123Z,101194.30
2019-03-08T17:55:22.042Z,101196.50
2019-03-08T17:58:01.714Z,101192.86
2019-03-08T18:00:38.975Z,101184.80
2019-03-08T18:03:13.101Z,101183.47
2019-03-08T18:05:57.169Z,101180.33
2019-03-08T18:08:44.135Z,101179.44
2019-03-08T18:11:47.561Z,101176.43
2019-03-08T18:14:34.532Z,101179.12
2019-03-08T18:17:20.577Z,101180.56
2019-03-08T18:20:12.299Z,101185.52
2019-03-08T18:22:53.210Z,101181.10
2019-03-08T18:25:44.318Z,101178.48
2019-03-08T18:28:38.498Z,101179.37
2019-03-08T18:31:39.219Z,101171.70
2019-03-08T18:34:26.690Z,101170.36
2019-03-08T18:37:04.673Z,101165.05
2019-03-08T18:39:45.299Z,101164.20
2019-03-08T18:42:24.125Z,101158.44
2019-03-08T18:45:12.759Z,101153.52
2019-03-08T18:47:58.882Z,101160.64
2019-03-08T18:50:35.088Z,101153.88
2019-03-08T18:53:38.515Z,101143.13
2019-03-08T18:56:14.692Z,101138.52
2019-03-08T18:58:56.386Z,101137.77
2019-03-08T19:01:43.512Z,101135.08
2019-03-08T19:04:30.212Z,101129.77
2019-03-08T19:07:31.872Z,101116.18
2019-03-08T19:10:19.446Z,101106.78
2019-03-08T19:13:01.903Z,101107.75
2019-03-08T19:15:59.374Z,101101.52
2019-03-08T19:18:57.423Z,101104.09
2019-03-08T19:21:36.910Z,101095.56
2019-03-08T19:24:12.433Z,101092.02
2019-03-08T19:27:00.989Z,101095.25
2019-03-08T19:29:40.918Z,101087.20
2019-03-08T19:32:17.206Z,101088.09
2019-03-08T19:35:11.379Z,101097.01
2019-03-08T19:38:09.561Z,101099.69
2019-03-08T19:40:57.114Z,101097.39
2019-03-08T19:43:38.675Z,101095.19
2019-03-08T19:46:19.433Z,101086.27
2019-03-08T19:49:15.359Z,101092.88
2019-03-08T19:52:03.480Z,101080.73
2019-03-08T19:55:06.961Z,101074.08
2019-03-08T19:58:02.197Z,101073.70
2019-03-08T20:00:42.484Z,101071.02
2019-03-08T20:03:31.126Z,101077.80
2019-03-08T20:06:06.191Z,101065.27
2019-03-08T20:08:51.759Z,101051.43
2019-03-08T20:11:34.915Z,101049.70
2019-03-08T20:14:20.246Z,101053.73
2019-03-08T20:16:59.519Z,101043.80
2019-03-08T20:19:40.077Z,101060.66
2019-03-08T20:22:34.449Z,101058.45
2019-03-08T20:25:22.023Z,101068.27
2019-03-08T20:28:19.733Z,101057.53
2019-03-08T20:30:59.178Z,101066.03
2019-03-08T20:33:59.948Z,101066.52
2019-03-08T20:37:00.581Z,101050.41
2019-03-08T20:39:41.238Z,101041.86
2019-03-08T20:42:28.667Z,101032.95
2019-03-08T20:45:16.109Z,101033.43
2019-03-08T20:47:46.039Z,101031.23
2019-03-08T20:50:15.623Z,101040.52
2019-03-08T20:52:45.536Z,101031.23
2019-03-08T20:55:15.146Z,101023.17
2019-03-08T20:57:44.711Z,101014.70
2019-03-08T21:00:14.792Z,101006.27
2019-03-08T21:02:44.745Z,101000.91
2019-03-08T21:05:14.302Z,100993.78
2019-03-08T21:07:43.891Z,100979.02
2019-03-08T21:10:13.489Z,100959.36
2019-03-08T21:12:43.376Z,100956.67
2019-03-08T21:15:12.977Z,100941.05
2019-03-08T21:17:42.587Z,100930.80
2019-03-08T21:20:12.205Z,100932.52
2019-03-08T21:22:41.776Z,100930.38
2019-03-08T21:25:11.464Z,100921.39
2019-03-08T21:27:41.315Z,100922.73
2019-03-08T21:30:14.137Z,100920.91
2019-03-08T21:32:43.740Z,100912.38
2019-03-08T21:35:13.325Z,100894.00
2019-03-08T21:37:43.294Z,100907.87
2019-03-08T21:40:12.929Z,100900.41
2019-03-08T21:42:42.482Z,100893.21
2019-03-08T21:45:13.108Z,100881.92
2019-03-08T21:47:42.657Z,100887.11
2019-03-08T21:50:13.078Z,100880.78
2019-03-08T21:52:42.627Z,100895.95
2019-03-08T21:55:12.221Z,100886.86
2019-03-08T21:57:41.737Z,100869.90
2019-03-08T22:00:17.034Z,100862.70
2019-03-08T22:02:46.824Z,100856.77
2019-03-08T22:05:19.399Z,100854.95
2019-03-08T22:07:48.937Z,100853.98
2019-03-08T22:10:37.467Z,100842.88
2019-03-08T22:13:07.013Z,100837.50
2019-03-08T22:15:36.537Z,100830.30
2019-03-08T22:18:06.754Z,100827.62
2019-03-08T22:20:36.308Z,100820.42
2019-03-08T22:23:06.273Z,100809.31
2019-03-08T22:25:35.802Z,100810.66
2019-03-08T22:28:05.345Z,100800.28
2019-03-08T22:30:34.878Z,100797.22
2019-03-08T22:33:04.420Z,100792.34
2019-03-08T22:35:34.012Z,100779.84
2019-03-08T22:38:03.567Z,100787.34
2019-03-08T22:40:33.115Z,100783.02
2019-03-08T22:43:02.637Z,100773.99
2019-03-08T22:45:32.166Z,100762.39
2019-03-08T22:48:01.716Z,100766.42
2019-03-08T22:50:31.643Z,100750.88
2019-03-08T22:53:01.549Z,100748.11
2019-03-08T22:55:31.086Z,100748.97
2019-03-08T22:58:00.641Z,100739.58
2019-03-08T23:00:54.150Z,100731.92
2019-03-08T23:03:23.861Z,100723.57
2019-03-08T23:05:53.438Z,100725.85
2019-03-08T23:08:23.003Z,100723.16
2019-03-08T23:10:52.891Z,100712.91
2019-03-08T23:13:22.443Z,100714.25
2019-03-08T23:15:51.981Z,100699.56
2019-03-08T23:18:21.553Z,100705.04
2019-03-08T23:20:51.099Z,100704.63
2019-03-08T23:23:20.647Z,100700.61
2019-03-08T23:25:50.176Z,100699.83
2019-03-08T23:28:41.779Z,100693.22
2019-03-08T23:31:22.922Z,100678.45
2019-03-08T23:33:52.522Z,100670.48
2019-03-08T23:36:22.050Z,100681.70
2019-03-08T23:38:51.607Z,100670.96
2019-03-08T23:41:21.743Z,100650.45
2019-03-08T23:43:51.296Z,100666.94
2019-03-08T23:46:21.167Z,100661.20
2019-03-08T23:48:50.719Z,100661.20
2019-03-08T23:51:20.585Z,100651.39
2019-03-08T23:53:50.370Z,100655.42
2019-03-08T23:56:20.201Z,100650.53
2019-03-08T23:58:50.045Z,100656.87
